sensor_id;sensor_type;location;lat;lon;timestamp;noise_LAeq;noise_LA_min;noise_LA_max;noise_LA01;noise_LA95
79200;Laerm;68628;48.714;9.472;2023-05-10T00:01:07;42.60;38.84;51.55;;
79200;Laerm;68628;48.714;9.472;2023-05-10T00:03:33;45.55;38.30;58.61;;
79200;Laerm;68628;48.714;9.472;2023-05-10T00:05:58;41.25;36.10;61.74;;
79200;Laerm;68628;48.714;9.472;2023-05-10T00:08:24;43.89;37.04;53.82;;
79200;Laerm;68628;48.714;9.472;2023-05-10T00:10:50;39.80;35.93;52.73;;
79200;Laerm;68628;48.714;9.472;2023-05-10T00:13:15;40.31;36.01;45.94;;
79200;Laerm;68628;48.714;9.472;2023-05-10T00:15:41;39.79;36.09;53.07;;
79200;Laerm;68628;48.714;9.472;2023-05-10T00:18:07;40.14;35.98;45.16;;
79200;Laerm;68628;48.714;9.472;2023-05-10T00:20:32;38.34;35.31;44.84;;
79200;Laerm;68628;48.714;9.472;2023-05-10T00:22:58;43.90;35.46;53.53;;
79200;Laerm;68628;48.714;9.472;2023-05-10T00:25:24;39.36;34.96;44.29;;
79200;Laerm;68628;48.714;9.472;2023-05-10T00:27:50;36.29;34.25;40.51;;
79200;Laerm;68628;48.714;9.472;2023-05-10T00:30:15;43.94;35.55;58.19;;
79200;Laerm;68628;48.714;9.472;2023-05-10T00:32:41;44.31;36.15;53.54;;
79200;Laerm;68628;48.714;9.472;2023-05-10T00:35:07;36.36;33.99;47.19;;
79200;Laerm;68628;48.714;9.472;2023-05-10T00:37:33;42.37;36.85;53.16;;
79200;Laerm;68628;48.714;9.472;2023-05-10T00:39:59;41.81;38.85;47.61;;
79200;Laerm;68628;48.714;9.472;2023-05-10T00:42:24;45.71;40.10;52.55;;
79200;Laerm;68628;48.714;9.472;2023-05-10T00:44:50;46.35;42.34;50.68;;
79200;Laerm;68628;48.714;9.472;2023-05-10T00:47:16;42.43;39.47;47.49;;
79200;Laerm;68628;48.714;9.472;2023-05-10T00:49:43;46.36;38.36;58.46;;
79200;Laerm;68628;48.714;9.472;2023-05-10T00:52:09;40.86;37.39;45.58;;
79200;Laerm;68628;48.714;9.472;2023-05-10T00:54:36;40.13;36.52;47.68;;
79200;Laerm;68628;48.714;9.472;2023-05-10T00:57:02;40.64;34.87;53.52;;
79200;Laerm;68628;48.714;9.472;2023-05-10T00:59:29;43.43;34.89;57.33;;
79200;Laerm;68628;48.714;9.472;2023-05-10T01:01:55;42.98;34.41;62.91;;
79200;Laerm;68628;48.714;9.472;2023-05-10T01:04:20;37.90;34.53;47.47;;
79200;Laerm;68628;48.714;9.472;2023-05-10T01:06:52;38.20;33.96;51.20;;
79200;Laerm;68628;48.714;9.472;2023-05-10T01:09:21;38.67;34.09;55.70;;
79200;Laerm;68628;48.714;9.472;2023-05-10T01:11:48;41.79;35.88;52.84;;
79200;Laerm;68628;48.714;9.472;2023-05-10T01:14:17;41.77;34.18;52.92;;
79200;Laerm;68628;48.714;9.472;2023-05-10T01:16:48;36.60;33.54;41.93;;
79200;Laerm;68628;48.714;9.472;2023-05-10T01:19:23;36.99;34.71;46.37;;
79200;Laerm;68628;48.714;9.472;2023-05-10T01:31:55;37.09;33.50;46.97;;
79200;Laerm;68628;48.714;9.472;2023-05-10T01:34:41;39.04;35.02;46.10;;
79200;Laerm;68628;48.714;9.472;2023-05-10T01:37:16;42.58;35.21;56.35;;
79200;Laerm;68628;48.714;9.472;2023-05-10T01:40:01;36.92;33.70;42.78;;
79200;Laerm;68628;48.714;9.472;2023-05-10T01:42:59;44.68;34.63;56.49;;
79200;Laerm;68628;48.714;9.472;2023-05-10T01:45:52;37.70;34.07;44.69;;
79200;Laerm;68628;48.714;9.472;2023-05-10T01:48:24;41.88;34.11;53.43;;
79200;Laerm;68628;48.714;9.472;2023-05-10T01:50:54;39.31;34.95;50.97;;
79200;Laerm;68628;48.714;9.472;2023-05-10T01:53:25;36.96;33.58;44.55;;
79200;Laerm;68628;48.714;9.472;2023-05-10T01:55:55;37.58;34.80;42.11;;
79200;Laerm;68628;48.714;9.472;2023-05-10T01:58:29;37.55;33.64;45.91;;
79200;Laerm;68628;48.714;9.472;2023-05-10T02:01:00;38.69;34.64;49.32;;
79200;Laerm;68628;48.714;9.472;2023-05-10T02:03:29;39.43;35.03;46.94;;
79200;Laerm;68628;48.714;9.472;2023-05-10T02:05:58;38.50;35.42;47.46;;
79200;Laerm;68628;48.714;9.472;2023-05-10T02:08:26;40.68;35.97;51.52;;
79200;Laerm;68628;48.714;9.472;2023-05-10T02:10:55;43.11;35.87;57.02;;
79200;Laerm;68628;48.714;9.472;2023-05-10T02:13:24;39.55;35.12;50.64;;
79200;Laerm;68628;48.714;9.472;2023-05-10T02:15:54;39.69;36.13;45.96;;
79200;Laerm;68628;48.714;9.472;2023-05-10T02:18:23;40.35;36.38;50.01;;
79200;Laerm;68628;48.714;9.472;2023-05-10T02:20:54;38.95;35.70;44.87;;
79200;Laerm;68628;48.714;9.472;2023-05-10T02:23:23;40.49;37.24;47.65;;
79200;Laerm;68628;48.714;9.472;2023-05-10T02:25:51;42.85;36.23;55.90;;
79200;Laerm;68628;48.714;9.472;2023-05-10T02:28:21;41.58;36.52;52.66;;
79200;Laerm;68628;48.714;9.472;2023-05-10T02:30:48;41.16;37.54;50.55;;
79200;Laerm;68628;48.714;9.472;2023-05-10T02:33:15;40.83;37.89;50.09;;
79200;Laerm;68628;48.714;9.472;2023-05-10T02:35:41;41.47;37.98;51.53;;
79200;Laerm;68628;48.714;9.472;2023-05-10T02:38:10;44.67;37.46;57.39;;
79200;Laerm;68628;48.714;9.472;2023-05-10T02:40:40;44.13;38.05;61.84;;
79200;Laerm;68628;48.714;9.472;2023-05-10T02:43:12;43.31;38.07;59.26;;
79200;Laerm;68628;48.714;9.472;2023-05-10T02:45:41;46.06;38.87;59.18;;
79200;Laerm;68628;48.714;9.472;2023-05-10T02:48:08;49.78;38.85;62.00;;
79200;Laerm;68628;48.714;9.472;2023-05-10T02:50:39;48.39;37.86;60.38;;
79200;Laerm;68628;48.714;9.472;2023-05-10T02:53:15;51.12;40.51;64.49;;
79200;Laerm;68628;48.714;9.472;2023-05-10T02:55:51;50.95;40.87;63.94;;
79200;Laerm;68628;48.714;9.472;2023-05-10T02:58:17;51.69;42.50;64.13;;
79200;Laerm;68628;48.714;9.472;2023-05-10T03:00:46;53.43;41.20;65.73;;
79200;Laerm;68628;48.714;9.472;2023-05-10T03:03:12;57.95;42.14;68.67;;
79200;Laerm;68628;48.714;9.472;2023-05-10T03:05:37;57.23;42.70;69.09;;
79200;Laerm;68628;48.714;9.472;2023-05-10T03:08:03;55.87;43.28;68.12;;
79200;Laerm;68628;48.714;9.472;2023-05-10T03:10:33;55.33;43.59;66.24;;
79200;Laerm;68628;48.714;9.472;2023-05-10T03:15:59;54.77;44.29;67.46;;
79200;Laerm;68628;48.714;9.472;2023-05-10T03:19:10;57.41;45.91;67.62;;
79200;Laerm;68628;48.714;9.472;2023-05-10T03:21:44;54.35;45.32;66.52;;
79200;Laerm;68628;48.714;9.472;2023-05-10T03:24:14;51.58;44.41;66.30;;
79200;Laerm;68628;48.714;9.472;2023-05-10T03:26:44;50.61;45.14;58.31;;
79200;Laerm;68628;48.714;9.472;2023-05-10T03:29:13;50.29;43.91;60.51;;
79200;Laerm;68628;48.714;9.472;2023-05-10T03:31:40;50.13;43.21;58.63;;
79200;Laerm;68628;48.714;9.472;2023-05-10T03:34:06;52.70;44.55;64.96;;
79200;Laerm;68628;48.714;9.472;2023-05-10T03:36:32;54.43;44.42;63.06;;
79200;Laerm;68628;48.714;9.472;2023-05-10T03:38:58;51.93;44.44;63.61;;
79200;Laerm;68628;48.714;9.472;2023-05-10T03:41:23;49.24;45.62;54.55;;
79200;Laerm;68628;48.714;9.472;2023-05-10T03:43:51;47.89;44.56;56.32;;
79200;Laerm;68628;48.714;9.472;2023-05-10T03:46:17;48.63;44.87;57.15;;
79200;Laerm;68628;48.714;9.472;2023-05-10T03:48:42;47.28;44.40;58.64;;
79200;Laerm;68628;48.714;9.472;2023-05-10T03:51:08;47.89;44.82;55.78;;
79200;Laerm;68628;48.714;9.472;2023-05-10T03:53:34;49.49;44.13;58.79;;
79200;Laerm;68628;48.714;9.472;2023-05-10T03:55:59;48.35;44.48;54.64;;
79200;Laerm;68628;48.714;9.472;2023-05-10T03:58:25;49.20;44.72;55.34;;
79200;Laerm;68628;48.714;9.472;2023-05-10T04:00:51;50.76;45.62;58.48;;
79200;Laerm;68628;48.714;9.472;2023-05-10T04:03:17;51.31;45.05;58.65;;
79200;Laerm;68628;48.714;9.472;2023-05-10T04:05:43;50.24;45.43;58.29;;
79200;Laerm;68628;48.714;9.472;2023-05-10T04:08:08;49.77;45.60;64.93;;
79200;Laerm;68628;48.714;9.472;2023-05-10T04:10:34;50.68;46.15;59.06;;
79200;Laerm;68628;48.714;9.472;2023-05-10T04:13:00;49.54;45.10;56.22;;
79200;Laerm;68628;48.714;9.472;2023-05-10T04:15:25;47.76;45.49;53.73;;
79200;Laerm;68628;48.714;9.472;2023-05-10T04:17:51;48.29;44.66;61.74;;
79200;Laerm;68628;48.714;9.472;2023-05-10T04:20:17;49.54;45.71;60.05;;
79200;Laerm;68628;48.714;9.472;2023-05-10T04:22:42;51.33;45.56;63.72;;
79200;Laerm;68628;48.714;9.472;2023-05-10T04:25:09;53.27;46.22;66.64;;
79200;Laerm;68628;48.714;9.472;2023-05-10T04:27:35;48.89;45.75;56.64;;
79200;Laerm;68628;48.714;9.472;2023-05-10T04:30:02;52.36;45.81;61.99;;
79200;Laerm;68628;48.714;9.472;2023-05-10T04:32:27;51.29;45.99;58.55;;
79200;Laerm;68628;48.714;9.472;2023-05-10T04:34:53;50.32;46.42;56.74;;
79200;Laerm;68628;48.714;9.472;2023-05-10T04:37:19;52.54;46.74;65.94;;
79200;Laerm;68628;48.714;9.472;2023-05-10T04:39:46;51.53;46.13;59.98;;
79200;Laerm;68628;48.714;9.472;2023-05-10T04:42:12;50.27;45.63;60.58;;
79200;Laerm;68628;48.714;9.472;2023-05-10T04:44:40;50.88;46.57;61.95;;
79200;Laerm;68628;48.714;9.472;2023-05-10T04:47:06;49.83;44.89;57.33;;
79200;Laerm;68628;48.714;9.472;2023-05-10T04:49:32;47.76;44.81;55.98;;
79200;Laerm;68628;48.714;9.472;2023-05-10T04:51:57;49.57;44.52;57.81;;
79200;Laerm;68628;48.714;9.472;2023-05-10T04:54:23;52.58;45.30;65.68;;
79200;Laerm;68628;48.714;9.472;2023-05-10T04:56:49;52.98;43.99;66.56;;
79200;Laerm;68628;48.714;9.472;2023-05-10T04:59:14;51.03;45.76;58.28;;
79200;Laerm;68628;48.714;9.472;2023-05-10T05:01:40;49.90;44.72;56.76;;
79200;Laerm;68628;48.714;9.472;2023-05-10T05:04:06;50.58;45.27;58.78;;
79200;Laerm;68628;48.714;9.472;2023-05-10T05:06:32;49.89;45.56;59.02;;
79200;Laerm;68628;48.714;9.472;2023-05-10T05:08:57;52.36;46.15;61.79;;
79200;Laerm;68628;48.714;9.472;2023-05-10T05:11:23;50.34;45.26;60.06;;
79200;Laerm;68628;48.714;9.472;2023-05-10T05:13:49;49.40;43.30;57.75;;
79200;Laerm;68628;48.714;9.472;2023-05-10T05:16:14;49.94;43.31;57.85;;
79200;Laerm;68628;48.714;9.472;2023-05-10T05:18:40;50.18;44.94;59.99;;
79200;Laerm;68628;48.714;9.472;2023-05-10T05:21:19;48.32;44.30;56.60;;
79200;Laerm;68628;48.714;9.472;2023-05-10T05:23:45;50.14;45.16;60.23;;
79200;Laerm;68628;48.714;9.472;2023-05-10T05:26:11;49.71;43.90;59.01;;
79200;Laerm;68628;48.714;9.472;2023-05-10T05:28:37;49.47;44.55;56.12;;
79200;Laerm;68628;48.714;9.472;2023-05-10T05:31:07;50.25;45.47;61.48;;
79200;Laerm;68628;48.714;9.472;2023-05-10T05:33:33;52.24;45.88;63.41;;
79200;Laerm;68628;48.714;9.472;2023-05-10T05:36:04;49.20;44.16;56.82;;
79200;Laerm;68628;48.714;9.472;2023-05-10T05:38:31;48.36;44.78;57.98;;
79200;Laerm;68628;48.714;9.472;2023-05-10T05:40:57;51.24;46.32;60.32;;
79200;Laerm;68628;48.714;9.472;2023-05-10T05:43:23;51.04;44.91;63.52;;
79200;Laerm;68628;48.714;9.472;2023-05-10T05:45:49;50.36;45.44;58.40;;
79200;Laerm;68628;48.714;9.472;2023-05-10T05:48:15;49.66;44.45;57.22;;
79200;Laerm;68628;48.714;9.472;2023-05-10T05:50:40;48.54;43.68;56.30;;
79200;Laerm;68628;48.714;9.472;2023-05-10T05:53:06;53.10;44.96;63.20;;
79200;Laerm;68628;48.714;9.472;2023-05-10T05:55:31;50.71;44.69;61.15;;
79200;Laerm;68628;48.714;9.472;2023-05-10T05:57:58;55.98;45.06;80.92;;
79200;Laerm;68628;48.714;9.472;2023-05-10T06:00:23;48.25;43.76;56.68;;
79200;Laerm;68628;48.714;9.472;2023-05-10T06:02:49;51.76;43.30;56.62;;
79200;Laerm;68628;48.714;9.472;2023-05-10T06:05:15;48.96;43.44;61.49;;
79200;Laerm;68628;48.714;9.472;2023-05-10T06:07:40;47.80;43.27;54.13;;
79200;Laerm;68628;48.714;9.472;2023-05-10T06:10:08;50.53;43.32;62.12;;
79200;Laerm;68628;48.714;9.472;2023-05-10T06:12:34;49.78;45.33;60.30;;
79200;Laerm;68628;48.714;9.472;2023-05-10T06:15:00;47.24;43.06;60.19;;
79200;Laerm;68628;48.714;9.472;2023-05-10T06:17:26;54.61;44.24;68.01;;
79200;Laerm;68628;48.714;9.472;2023-05-10T06:19:51;49.65;44.79;56.99;;
79200;Laerm;68628;48.714;9.472;2023-05-10T06:22:17;48.32;43.50;55.31;;
79200;Laerm;68628;48.714;9.472;2023-05-10T06:24:43;48.99;43.03;59.72;;
79200;Laerm;68628;48.714;9.472;2023-05-10T06:27:09;48.87;44.80;58.69;;
79200;Laerm;68628;48.714;9.472;2023-05-10T06:29:34;48.43;45.61;55.76;;
79200;Laerm;68628;48.714;9.472;2023-05-10T06:32:00;49.88;44.26;62.92;;
79200;Laerm;68628;48.714;9.472;2023-05-10T06:34:25;49.14;44.96;57.97;;
79200;Laerm;68628;48.714;9.472;2023-05-10T06:36:51;48.56;44.49;56.09;;
79200;Laerm;68628;48.714;9.472;2023-05-10T06:39:17;49.45;46.58;55.94;;
79200;Laerm;68628;48.714;9.472;2023-05-10T06:41:42;49.46;43.89;56.93;;
79200;Laerm;68628;48.714;9.472;2023-05-10T06:44:08;50.45;47.51;55.00;;
79200;Laerm;68628;48.714;9.472;2023-05-10T06:46:34;48.64;45.09;56.58;;
79200;Laerm;68628;48.714;9.472;2023-05-10T06:48:59;49.04;44.57;58.26;;
79200;Laerm;68628;48.714;9.472;2023-05-10T06:51:25;49.51;44.66;59.70;;
79200;Laerm;68628;48.714;9.472;2023-05-10T06:53:51;49.31;43.58;59.81;;
79200;Laerm;68628;48.714;9.472;2023-05-10T06:56:17;50.52;44.38;57.61;;
79200;Laerm;68628;48.714;9.472;2023-05-10T06:58:43;49.56;44.53;56.70;;
79200;Laerm;68628;48.714;9.472;2023-05-10T07:01:08;49.88;45.64;55.11;;
79200;Laerm;68628;48.714;9.472;2023-05-10T07:03:34;49.84;43.88;56.79;;
79200;Laerm;68628;48.714;9.472;2023-05-10T07:06:04;48.99;44.63;56.17;;
79200;Laerm;68628;48.714;9.472;2023-05-10T07:08:31;47.55;44.53;59.26;;
79200;Laerm;68628;48.714;9.472;2023-05-10T07:11:04;51.31;44.29;63.91;;
79200;Laerm;68628;48.714;9.472;2023-05-10T07:13:31;49.70;43.94;57.58;;
79200;Laerm;68628;48.714;9.472;2023-05-10T07:15:59;50.89;45.74;58.57;;
79200;Laerm;68628;48.714;9.472;2023-05-10T07:18:25;48.05;44.64;53.24;;
79200;Laerm;68628;48.714;9.472;2023-05-10T07:20:51;49.65;44.93;62.29;;
79200;Laerm;68628;48.714;9.472;2023-05-10T07:23:17;51.81;45.01;64.50;;
79200;Laerm;68628;48.714;9.472;2023-05-10T07:25:47;50.33;44.53;58.66;;
79200;Laerm;68628;48.714;9.472;2023-05-10T07:28:14;48.55;43.38;60.97;;
79200;Laerm;68628;48.714;9.472;2023-05-10T07:30:40;50.91;45.93;63.74;;
79200;Laerm;68628;48.714;9.472;2023-05-10T07:33:07;49.68;44.62;57.09;;
79200;Laerm;68628;48.714;9.472;2023-05-10T07:35:34;53.50;44.96;64.87;;
79200;Laerm;68628;48.714;9.472;2023-05-10T07:38:00;52.44;43.79;69.50;;
79200;Laerm;68628;48.714;9.472;2023-05-10T07:40:25;51.21;46.42;64.41;;
79200;Laerm;68628;48.714;9.472;2023-05-10T07:42:51;52.39;45.74;67.08;;
79200;Laerm;68628;48.714;9.472;2023-05-10T07:45:17;52.29;44.67;64.01;;
79200;Laerm;68628;48.714;9.472;2023-05-10T07:47:43;47.90;44.92;54.06;;
79200;Laerm;68628;48.714;9.472;2023-05-10T07:50:09;53.06;45.56;65.71;;
79200;Laerm;68628;48.714;9.472;2023-05-10T07:52:34;51.04;46.18;66.37;;
79200;Laerm;68628;48.714;9.472;2023-05-10T07:55:00;48.08;42.74;59.76;;
79200;Laerm;68628;48.714;9.472;2023-05-10T07:57:25;50.93;44.69;65.51;;
79200;Laerm;68628;48.714;9.472;2023-05-10T07:59:51;54.97;45.26;70.37;;
79200;Laerm;68628;48.714;9.472;2023-05-10T08:02:16;48.67;43.34;62.16;;
79200;Laerm;68628;48.714;9.472;2023-05-10T08:04:42;50.67;43.40;60.59;;
79200;Laerm;68628;48.714;9.472;2023-05-10T08:07:08;50.16;42.97;62.67;;
79200;Laerm;68628;48.714;9.472;2023-05-10T08:09:33;50.23;43.43;60.81;;
79200;Laerm;68628;48.714;9.472;2023-05-10T08:11:59;49.87;43.70;60.68;;
79200;Laerm;68628;48.714;9.472;2023-05-10T08:14:28;47.28;42.75;57.67;;
79200;Laerm;68628;48.714;9.472;2023-05-10T08:16:54;49.41;43.98;58.01;;
79200;Laerm;68628;48.714;9.472;2023-05-10T08:19:20;59.97;45.16;69.96;;
79200;Laerm;68628;48.714;9.472;2023-05-10T08:21:47;51.95;44.58;63.46;;
79200;Laerm;68628;48.714;9.472;2023-05-10T08:24:13;51.22;45.73;64.00;;
79200;Laerm;68628;48.714;9.472;2023-05-10T08:26:38;47.34;43.77;54.43;;
79200;Laerm;68628;48.714;9.472;2023-05-10T08:29:04;59.15;42.78;72.47;;
79200;Laerm;68628;48.714;9.472;2023-05-10T08:31:30;48.90;44.54;57.45;;
79200;Laerm;68628;48.714;9.472;2023-05-10T08:33:55;52.06;44.42;67.38;;
79200;Laerm;68628;48.714;9.472;2023-05-10T08:36:21;50.76;43.51;67.74;;
79200;Laerm;68628;48.714;9.472;2023-05-10T08:38:53;51.05;43.02;63.52;;
79200;Laerm;68628;48.714;9.472;2023-05-10T08:41:24;49.43;44.45;63.18;;
79200;Laerm;68628;48.714;9.472;2023-05-10T08:43:52;53.49;44.14;71.43;;
79200;Laerm;68628;48.714;9.472;2023-05-10T08:46:21;56.96;45.03;74.52;;
79200;Laerm;68628;48.714;9.472;2023-05-10T08:48:50;53.71;44.90;71.14;;
79200;Laerm;68628;48.714;9.472;2023-05-10T08:51:23;48.89;43.55;56.67;;
79200;Laerm;68628;48.714;9.472;2023-05-10T08:53:52;48.06;43.08;56.20;;
79200;Laerm;68628;48.714;9.472;2023-05-10T08:56:18;49.84;43.97;58.02;;
79200;Laerm;68628;48.714;9.472;2023-05-10T08:58:44;53.45;42.56;71.26;;
79200;Laerm;68628;48.714;9.472;2023-05-10T09:01:10;50.73;44.30;63.30;;
79200;Laerm;68628;48.714;9.472;2023-05-10T09:03:38;50.59;43.35;61.90;;
79200;Laerm;68628;48.714;9.472;2023-05-10T09:06:04;49.69;46.42;55.24;;
79200;Laerm;68628;48.714;9.472;2023-05-10T09:08:30;49.67;43.45;57.16;;
79200;Laerm;68628;48.714;9.472;2023-05-10T09:10:57;51.81;43.78;64.25;;
79200;Laerm;68628;48.714;9.472;2023-05-10T09:13:24;51.28;44.90;58.99;;
79200;Laerm;68628;48.714;9.472;2023-05-10T09:15:52;52.43;43.55;68.50;;
79200;Laerm;68628;48.714;9.472;2023-05-10T09:18:18;60.13;43.00;76.19;;
79200;Laerm;68628;48.714;9.472;2023-05-10T09:20:44;56.97;46.73;75.07;;
79200;Laerm;68628;48.714;9.472;2023-05-10T09:23:10;58.70;46.24;75.61;;
79200;Laerm;68628;48.714;9.472;2023-05-10T09:25:36;60.18;44.86;77.76;;
79200;Laerm;68628;48.714;9.472;2023-05-10T09:28:07;52.37;44.27;71.31;;
79200;Laerm;68628;48.714;9.472;2023-05-10T09:30:34;57.60;45.57;73.82;;
79200;Laerm;68628;48.714;9.472;2023-05-10T09:33:01;54.91;46.72;71.37;;
79200;Laerm;68628;48.714;9.472;2023-05-10T09:35:30;53.56;46.52;72.25;;
79200;Laerm;68628;48.714;9.472;2023-05-10T09:38:01;53.56;44.10;68.76;;
79200;Laerm;68628;48.714;9.472;2023-05-10T09:40:29;54.62;43.00;72.09;;
79200;Laerm;68628;48.714;9.472;2023-05-10T09:45:30;51.28;43.35;68.20;;
79200;Laerm;68628;48.714;9.472;2023-05-10T09:47:58;48.18;41.73;59.65;;
79200;Laerm;68628;48.714;9.472;2023-05-10T09:50:25;49.37;43.06;60.08;;
79200;Laerm;68628;48.714;9.472;2023-05-10T09:55:24;51.64;46.06;62.65;;
79200;Laerm;68628;48.714;9.472;2023-05-10T09:58:00;54.32;48.92;61.46;;
79200;Laerm;68628;48.714;9.472;2023-05-10T10:00:26;54.23;47.80;64.63;;
79200;Laerm;68628;48.714;9.472;2023-05-10T10:02:58;56.64;47.65;65.01;;
79200;Laerm;68628;48.714;9.472;2023-05-10T10:05:30;56.01;47.29;71.25;;
79200;Laerm;68628;48.714;9.472;2023-05-10T10:07:58;53.37;46.15;62.10;;
79200;Laerm;68628;48.714;9.472;2023-05-10T10:10:25;52.90;45.13;63.73;;
79200;Laerm;68628;48.714;9.472;2023-05-10T10:12:52;55.84;45.44;65.63;;
79200;Laerm;68628;48.714;9.472;2023-05-10T10:15:18;52.56;45.34;60.61;;
79200;Laerm;68628;48.714;9.472;2023-05-10T10:17:46;59.55;53.34;66.63;;
79200;Laerm;68628;48.714;9.472;2023-05-10T10:20:12;55.04;49.52;64.46;;
79200;Laerm;68628;48.714;9.472;2023-05-10T10:22:38;53.71;45.97;66.94;;
79200;Laerm;68628;48.714;9.472;2023-05-10T10:25:05;54.78;46.17;61.76;;
79200;Laerm;68628;48.714;9.472;2023-05-10T10:30:42;50.11;44.20;58.66;;
79200;Laerm;68628;48.714;9.472;2023-05-10T10:33:59;53.49;43.56;68.64;;
79200;Laerm;68628;48.714;9.472;2023-05-10T10:36:26;50.57;45.88;58.18;;
79200;Laerm;68628;48.714;9.472;2023-05-10T10:38:58;51.26;44.39;59.06;;
79200;Laerm;68628;48.714;9.472;2023-05-10T10:41:33;50.04;46.17;59.25;;
79200;Laerm;68628;48.714;9.472;2023-05-10T10:47:00;51.95;45.10;59.18;;
79200;Laerm;68628;48.714;9.472;2023-05-10T10:49:27;51.16;46.60;59.66;;
79200;Laerm;68628;48.714;9.472;2023-05-10T10:55:17;50.06;42.90;63.94;;
79200;Laerm;68628;48.714;9.472;2023-05-10T10:57:56;53.24;43.82;69.57;;
79200;Laerm;68628;48.714;9.472;2023-05-10T11:00:38;51.10;44.05;58.14;;
79200;Laerm;68628;48.714;9.472;2023-05-10T11:03:11;52.30;44.29;63.76;;
79200;Laerm;68628;48.714;9.472;2023-05-10T11:05:50;48.23;43.53;56.46;;
79200;Laerm;68628;48.714;9.472;2023-05-10T11:08:29;54.50;46.14;64.81;;
79200;Laerm;68628;48.714;9.472;2023-05-10T11:11:02;51.82;44.17;62.09;;
79200;Laerm;68628;48.714;9.472;2023-05-10T11:13:45;50.44;43.01;59.26;;
79200;Laerm;68628;48.714;9.472;2023-05-10T11:16:21;50.53;42.48;60.30;;
79200;Laerm;68628;48.714;9.472;2023-05-10T11:19:04;51.79;44.96;61.63;;
79200;Laerm;68628;48.714;9.472;2023-05-10T11:21:31;53.31;43.89;66.53;;
79200;Laerm;68628;48.714;9.472;2023-05-10T11:23:59;51.25;45.95;61.38;;
79200;Laerm;68628;48.714;9.472;2023-05-10T11:26:31;54.19;47.72;67.27;;
79200;Laerm;68628;48.714;9.472;2023-05-10T11:28:58;57.46;52.39;64.04;;
79200;Laerm;68628;48.714;9.472;2023-05-10T11:31:26;56.71;47.67;68.95;;
79200;Laerm;68628;48.714;9.472;2023-05-10T11:33:55;55.78;49.58;64.55;;
79200;Laerm;68628;48.714;9.472;2023-05-10T11:36:26;54.39;46.59;61.58;;
79200;Laerm;68628;48.714;9.472;2023-05-10T11:38:53;59.38;47.77;65.81;;
79200;Laerm;68628;48.714;9.472;2023-05-10T11:41:21;52.96;42.67;60.05;;
79200;Laerm;68628;48.714;9.472;2023-05-10T11:43:50;53.25;44.27;68.22;;
79200;Laerm;68628;48.714;9.472;2023-05-10T11:46:20;48.08;44.29;60.84;;
79200;Laerm;68628;48.714;9.472;2023-05-10T11:48:50;52.99;45.47;61.65;;
79200;Laerm;68628;48.714;9.472;2023-05-10T11:51:24;51.94;46.95;67.05;;
79200;Laerm;68628;48.714;9.472;2023-05-10T11:53:55;55.59;48.09;74.58;;
79200;Laerm;68628;48.714;9.472;2023-05-10T11:56:22;52.04;45.27;62.73;;
79200;Laerm;68628;48.714;9.472;2023-05-10T11:58:56;51.52;45.14;62.88;;
79200;Laerm;68628;48.714;9.472;2023-05-10T12:01:27;53.24;46.68;65.13;;
79200;Laerm;68628;48.714;9.472;2023-05-10T12:03:55;52.89;46.99;64.80;;
79200;Laerm;68628;48.714;9.472;2023-05-10T12:06:29;51.36;46.00;61.67;;
79200;Laerm;68628;48.714;9.472;2023-05-10T12:08:56;51.12;46.51;58.76;;
79200;Laerm;68628;48.714;9.472;2023-05-10T12:11:26;54.61;46.44;64.22;;
79200;Laerm;68628;48.714;9.472;2023-05-10T12:13:55;57.48;46.23;74.33;;
79200;Laerm;68628;48.714;9.472;2023-05-10T12:16:29;53.78;46.36;61.32;;
79200;Laerm;68628;48.714;9.472;2023-05-10T12:19:00;51.22;46.08;59.16;;
79200;Laerm;68628;48.714;9.472;2023-05-10T12:21:29;51.22;47.08;58.47;;
79200;Laerm;68628;48.714;9.472;2023-05-10T12:24:01;55.90;47.39;71.15;;
79200;Laerm;68628;48.714;9.472;2023-05-10T12:26:28;53.90;45.67;64.71;;
79200;Laerm;68628;48.714;9.472;2023-05-10T12:28:55;51.81;48.71;57.56;;
79200;Laerm;68628;48.714;9.472;2023-05-10T12:31:21;52.67;48.03;65.39;;
79200;Laerm;68628;48.714;9.472;2023-05-10T12:33:46;54.06;49.77;61.54;;
79200;Laerm;68628;48.714;9.472;2023-05-10T12:36:16;54.41;49.73;69.76;;
79200;Laerm;68628;48.714;9.472;2023-05-10T12:38:45;54.74;50.39;75.08;;
79200;Laerm;68628;48.714;9.472;2023-05-10T12:41:16;55.70;50.35;63.34;;
79200;Laerm;68628;48.714;9.472;2023-05-10T12:43:42;53.46;47.34;62.39;;
79200;Laerm;68628;48.714;9.472;2023-05-10T12:46:13;54.68;47.83;70.08;;
79200;Laerm;68628;48.714;9.472;2023-05-10T12:48:42;51.63;46.83;59.33;;
79200;Laerm;68628;48.714;9.472;2023-05-10T12:51:09;52.53;46.32;60.33;;
79200;Laerm;68628;48.714;9.472;2023-05-10T12:53:40;53.30;44.45;62.35;;
79200;Laerm;68628;48.714;9.472;2023-05-10T12:56:06;49.53;43.98;58.88;;
79200;Laerm;68628;48.714;9.472;2023-05-10T12:58:32;52.11;44.06;60.26;;
79200;Laerm;68628;48.714;9.472;2023-05-10T13:00:59;55.64;45.59;68.59;;
79200;Laerm;68628;48.714;9.472;2023-05-10T13:03:25;52.29;44.70;64.57;;
79200;Laerm;68628;48.714;9.472;2023-05-10T13:05:52;51.72;43.92;59.64;;
79200;Laerm;68628;48.714;9.472;2023-05-10T13:08:17;49.38;43.86;57.65;;
79200;Laerm;68628;48.714;9.472;2023-05-10T13:10:43;52.90;43.88;62.67;;
79200;Laerm;68628;48.714;9.472;2023-05-10T13:13:09;49.27;44.17;54.41;;
79200;Laerm;68628;48.714;9.472;2023-05-10T13:15:35;49.22;43.68;58.10;;
79200;Laerm;68628;48.714;9.472;2023-05-10T13:18:00;51.17;44.92;61.46;;
79200;Laerm;68628;48.714;9.472;2023-05-10T13:20:26;51.35;44.40;60.44;;
79200;Laerm;68628;48.714;9.472;2023-05-10T13:22:53;50.38;43.68;58.47;;
79200;Laerm;68628;48.714;9.472;2023-05-10T13:25:19;55.50;45.25;66.26;;
79200;Laerm;68628;48.714;9.472;2023-05-10T13:27:45;52.26;45.03;64.13;;
79200;Laerm;68628;48.714;9.472;2023-05-10T13:30:11;48.68;43.56;57.06;;
79200;Laerm;68628;48.714;9.472;2023-05-10T13:32:37;54.30;43.04;66.39;;
79200;Laerm;68628;48.714;9.472;2023-05-10T13:35:04;49.22;42.74;56.73;;
79200;Laerm;68628;48.714;9.472;2023-05-10T13:37:31;50.11;43.40;58.80;;
79200;Laerm;68628;48.714;9.472;2023-05-10T13:39:57;50.27;43.93;60.69;;
79200;Laerm;68628;48.714;9.472;2023-05-10T13:42:23;51.43;43.72;63.98;;
79200;Laerm;68628;48.714;9.472;2023-05-10T13:44:51;48.60;41.97;60.74;;
79200;Laerm;68628;48.714;9.472;2023-05-10T13:47:17;51.66;42.03;61.44;;
79200;Laerm;68628;48.714;9.472;2023-05-10T13:49:43;53.64;43.41;66.12;;
79200;Laerm;68628;48.714;9.472;2023-05-10T13:52:08;53.33;43.78;66.47;;
79200;Laerm;68628;48.714;9.472;2023-05-10T13:54:38;47.96;42.96;58.50;;
79200;Laerm;68628;48.714;9.472;2023-05-10T13:57:04;48.51;43.48;59.38;;
79200;Laerm;68628;48.714;9.472;2023-05-10T13:59:30;49.47;43.17;57.87;;
79200;Laerm;68628;48.714;9.472;2023-05-10T14:02:00;48.99;42.48;60.29;;
79200;Laerm;68628;48.714;9.472;2023-05-10T14:04:29;51.69;42.75;63.23;;
79200;Laerm;68628;48.714;9.472;2023-05-10T14:06:56;48.49;42.68;55.05;;
79200;Laerm;68628;48.714;9.472;2023-05-10T14:09:22;49.55;43.72;63.18;;
79200;Laerm;68628;48.714;9.472;2023-05-10T14:11:47;49.04;43.74;59.10;;
79200;Laerm;68628;48.714;9.472;2023-05-10T14:14:13;50.86;43.49;59.33;;
79200;Laerm;68628;48.714;9.472;2023-05-10T14:16:44;50.36;43.27;58.42;;